Kezdőlap
METAR-TAF:

METAR-TAF

Repülőterek :

Locarno, Svájc

földrajzi szélesség: 46-09-55N, földrajzi hosszúság: 8-52-40E, magasság: 198 m

Jelenlegi meteorológiai megfigyelések

A jelentés 28 perccel ezelõtt készült, 23:50 UTC
Különbözõ irányokból fújó szél 2 kt
Hőmérséklet 6°C
Páratartalom 87%
Légköri nyomás 1025 hPa
Látótávolság: 9000 m
Szórványos felhőzet 5300 lábon

METAR: LSZL 042350Z AUTO VRB02KT 9000NDV SCT053 06/04 Q1025 RMK

Idő: 02:18 (00:18 UTC)

Előrejelzés

A jelentés 6 órával és 53 perccel ezelõtt készült, 17:25 UTC
Az előrejelzés 03-én 18 óra UTC és 04-én 03 óra UTC között érvényes
Különbözõ irányokból fújó szél 3 kt
Látótávolság 10 km, vagy több
felhőtlen 1500 m magasságban, és nincs gomolyfelhõ

TAF: LSZL 031725Z 0318/0403 VRB03KT CAVOK

Meteorológiai megfigyelések és előrejelzések több, mint 4000 repülőtéren (METAR és TAF jelentéseket).

A térképen piros és sárga pontok jelzik az elérhető meteorológiai állomásokat.

Mozgassa az egeret a pont fölött, hogy megjelenjen az állomás neve.

Azután kattintson az időjárási megfigyelések és előrejelzések megtekintéséhez.

A térkép megváltoztatása: kattintson a fekete keresztel jelölt zöld gombra ráközelítéshez, a vonallal jelölt zöld gombra távolításhoz, vagy a zöld nyilakra a szomszédos térképek eléréséhez.


METAR-TAF: